Hlavní strana
METAR-TAF:

METAR-TAF

Letiště :

Northeast Alabama Regional Airport

Gadsden, Alabama, Spojené státy americké

zeměpisná šířka: 33-58N, zeměpisná délka: 086-05W, výška: 173 m

Aktuální stav počasí

Zpráva byla vytvořena před 15 minutami, v 01:56 UTC
Bezvětří
Teplota 13°C
Vlhkost vzduchu 94%
Tlak 1021 hPa
Viditelnost: 16.1 km
Skoro jasno ve výšce 400 ft
Oblačno až skoro zataženo ve výšce 3000 ft
Zataženo ve výšce 5500 ft
slabý déšť

METAR: KGAD 190156Z AUTO 00000KT 10SM -RA FEW004 BKN030 OVC055 13/12 A3014 RMK AO2 SLP210 P0002 T01280122

Čas: 20:11 (02:11 UTC)


TAF: chybějící

Stav a předpovědi počasí z více než 4 000 letišť (zprávy METAR a TAF).

Červené a žluté tečky na mapě představují dostupné meteorologické stanice.

Když kurzor umístíte na tečku, zobrazí se název stanice.

Pak kliknutím zobrazíte stav a předpověď počasí.

Chcete-li změnit mapu, kliknutím na zelené tlačítko se znaménkem +mapu přiblížíte, kliknutím na zelené tlačítko se znaménkem – mapu oddálíte a kliknutím na zelené šipky přejdete na sousední mapy.


METAR-TAF: